createdAt,value
2017-10-10T00:00:32.520Z,99.90
2017-10-10T00:03:00.629Z,99.90
2017-10-10T00:05:29.416Z,99.90
2017-10-10T00:07:57.312Z,99.90
2017-10-10T00:10:25.131Z,99.90
2017-10-10T00:12:53.016Z,99.90
2017-10-10T00:15:20.815Z,99.90
2017-10-10T00:17:49.465Z,99.90
2017-10-10T00:20:17.446Z,99.90
2017-10-10T00:22:45.197Z,99.90
2017-10-10T00:25:12.976Z,99.90
2017-10-10T00:27:40.866Z,99.90
2017-10-10T00:30:09.615Z,99.90
2017-10-10T00:32:37.594Z,99.90
2017-10-10T00:35:05.723Z,99.90
2017-10-10T00:37:37.845Z,99.90
2017-10-10T00:40:05.997Z,99.90
2017-10-10T00:42:33.987Z,99.90
2017-10-10T00:45:01.934Z,99.90
2017-10-10T00:47:29.716Z,99.90
2017-10-10T00:49:57.995Z,99.90
2017-10-10T00:52:25.964Z,99.90
2017-10-10T00:54:54.144Z,99.90
2017-10-10T00:57:23.013Z,99.90
2017-10-10T00:59:51.758Z,99.90
2017-10-10T01:02:19.663Z,99.90
2017-10-10T01:04:47.760Z,99.90
2017-10-10T01:07:15.810Z,99.90
2017-10-10T01:09:43.678Z,99.90
2017-10-10T01:12:11.462Z,99.90
2017-10-10T01:14:39.609Z,99.90
2017-10-10T01:17:07.489Z,99.90
2017-10-10T01:19:35.486Z,99.90
2017-10-10T01:22:04.097Z,99.90
2017-10-10T01:24:32.180Z,99.90
2017-10-10T01:27:00.182Z,99.90
2017-10-10T01:29:28.051Z,99.90
2017-10-10T01:31:56.741Z,99.90
2017-10-10T01:34:24.603Z,99.90
2017-10-10T01:36:52.556Z,99.90
2017-10-10T01:39:20.439Z,99.90
2017-10-10T01:41:48.286Z,99.90
2017-10-10T01:44:16.232Z,99.90
2017-10-10T01:46:44.198Z,99.90
2017-10-10T01:49:12.296Z,99.90
2017-10-10T01:51:40.187Z,99.90
2017-10-10T01:54:07.914Z,99.90
2017-10-10T01:56:35.702Z,99.90
2017-10-10T01:59:03.668Z,99.90
2017-10-10T02:01:31.641Z,99.90
2017-10-10T02:03:59.614Z,99.90
2017-10-10T02:06:27.381Z,99.90
2017-10-10T02:08:55.144Z,99.90
2017-10-10T02:11:23.100Z,99.90
2017-10-10T02:13:50.902Z,99.90
2017-10-10T02:16:19.630Z,99.90
2017-10-10T02:18:47.379Z,99.90
2017-10-10T02:21:15.278Z,99.90
2017-10-10T02:23:43.258Z,99.90
2017-10-10T02:26:11.232Z,99.90
2017-10-10T02:28:39.202Z,99.90
2017-10-10T02:31:07.276Z,99.90
2017-10-10T02:33:35.547Z,99.90
2017-10-10T02:36:03.424Z,99.90
2017-10-10T02:38:31.299Z,99.90
2017-10-10T02:40:59.090Z,99.90
2017-10-10T02:43:27.169Z,99.90
2017-10-10T02:45:55.082Z,99.90
2017-10-10T02:48:22.993Z,99.90
2017-10-10T02:50:52.248Z,99.90
2017-10-10T02:53:20.214Z,99.90
2017-10-10T02:55:47.986Z,99.90
2017-10-10T02:58:15.948Z,99.90
2017-10-10T03:00:43.821Z,99.90
2017-10-10T03:03:11.673Z,99.90
2017-10-10T03:05:39.587Z,99.90
2017-10-10T03:08:08.234Z,99.90
2017-10-10T03:10:35.997Z,99.90
2017-10-10T03:13:03.960Z,99.90
2017-10-10T03:15:31.936Z,99.90
2017-10-10T03:17:59.693Z,99.90
2017-10-10T03:20:27.682Z,99.90
2017-10-10T03:22:55.626Z,99.90
2017-10-10T03:25:24.515Z,99.90
2017-10-10T03:27:52.314Z,99.90
2017-10-10T03:30:21.133Z,99.90
2017-10-10T03:32:48.948Z,99.90
2017-10-10T03:35:16.815Z,99.90
2017-10-10T03:37:44.683Z,99.90
2017-10-10T03:40:12.551Z,99.90
2017-10-10T03:42:41.063Z,99.90
2017-10-10T03:45:08.839Z,99.90
2017-10-10T03:47:36.694Z,99.90
2017-10-10T03:50:05.540Z,99.90
2017-10-10T03:52:33.303Z,99.90
2017-10-10T03:55:01.700Z,99.90
2017-10-10T03:57:29.562Z,99.90
2017-10-10T03:59:57.331Z,99.90
2017-10-10T04:02:25.198Z,99.90
2017-10-10T04:04:53.141Z,99.90
2017-10-10T04:07:21.004Z,99.90
2017-10-10T04:09:48.787Z,99.90
2017-10-10T04:12:16.558Z,99.90
2017-10-10T04:14:44.603Z,99.90
2017-10-10T04:17:12.587Z,99.90
2017-10-10T04:19:40.333Z,99.90
2017-10-10T04:22:08.524Z,99.90
2017-10-10T04:24:36.294Z,99.90
2017-10-10T04:27:04.051Z,99.90
2017-10-10T04:29:31.905Z,99.90
2017-10-10T04:31:59.783Z,99.90
2017-10-10T04:34:27.651Z,99.90
2017-10-10T04:36:55.404Z,99.90
2017-10-10T04:39:24.697Z,99.90
2017-10-10T04:41:52.790Z,99.90
2017-10-10T04:44:20.554Z,99.90
2017-10-10T04:46:48.506Z,99.90
2017-10-10T04:49:16.300Z,99.90
2017-10-10T04:51:44.191Z,99.90
2017-10-10T04:54:12.836Z,99.90
2017-10-10T04:56:40.588Z,99.90
2017-10-10T04:59:08.470Z,99.90
2017-10-10T05:01:37.493Z,99.90
2017-10-10T05:04:06.355Z,99.90
2017-10-10T05:06:34.304Z,99.90
2017-10-10T05:09:02.910Z,99.90
2017-10-10T05:11:30.875Z,99.90
2017-10-10T05:13:58.940Z,99.90
2017-10-10T05:16:26.808Z,99.90
2017-10-10T05:18:54.548Z,99.90
2017-10-10T05:21:22.282Z,99.90
2017-10-10T05:23:50.775Z,99.90
2017-10-10T05:26:18.791Z,99.90
2017-10-10T05:28:46.777Z,99.90
2017-10-10T05:31:14.632Z,99.90
2017-10-10T05:33:42.489Z,99.90
2017-10-10T05:36:10.863Z,99.90
2017-10-10T05:38:38.718Z,99.90
2017-10-10T05:41:07.524Z,99.90
2017-10-10T05:43:35.534Z,99.90
2017-10-10T05:46:04.147Z,99.90
2017-10-10T05:48:32.043Z,99.90
2017-10-10T05:51:00.606Z,99.90
2017-10-10T05:53:28.359Z,99.90
2017-10-10T05:55:56.052Z,99.90
2017-10-10T05:58:23.767Z,99.90
2017-10-10T06:00:51.600Z,99.90
2017-10-10T06:03:32.039Z,99.90
2017-10-10T06:05:59.892Z,99.90
2017-10-10T06:08:27.591Z,99.90
2017-10-10T06:10:55.314Z,99.90
2017-10-10T06:13:23.043Z,99.90
2017-10-10T06:15:50.772Z,99.90
2017-10-10T06:18:18.457Z,99.90
2017-10-10T06:20:47.088Z,99.90
2017-10-10T06:23:14.790Z,99.90
2017-10-10T06:25:42.538Z,99.90
2017-10-10T06:28:10.228Z,99.90
2017-10-10T06:30:38.755Z,99.90
2017-10-10T06:33:06.476Z,99.90
2017-10-10T06:35:34.930Z,99.90
2017-10-10T06:38:02.753Z,99.90
2017-10-10T06:40:30.475Z,99.90
2017-10-10T06:42:59.015Z,99.90
2017-10-10T06:45:26.718Z,99.90
2017-10-10T06:47:54.432Z,99.90
2017-10-10T06:50:22.247Z,99.90
2017-10-10T06:52:50.710Z,99.90
2017-10-10T06:55:18.371Z,99.90
2017-10-10T06:57:46.062Z,99.90
2017-10-10T07:00:14.897Z,99.90
2017-10-10T07:02:42.612Z,99.90
2017-10-10T07:05:11.252Z,99.90
2017-10-10T07:07:39.005Z,99.90
2017-10-10T07:10:06.738Z,99.90
2017-10-10T07:12:34.432Z,99.90
2017-10-10T07:15:02.130Z,99.90
2017-10-10T07:17:29.868Z,99.90
2017-10-10T07:19:57.557Z,99.90
2017-10-10T07:22:25.241Z,99.90
2017-10-10T07:24:53.707Z,99.90
2017-10-10T07:27:22.178Z,99.90
2017-10-10T07:29:50.768Z,99.90
2017-10-10T07:32:19.236Z,99.90
2017-10-10T07:34:47.060Z,99.90
2017-10-10T07:37:14.870Z,99.90
2017-10-10T07:39:42.561Z,99.90
2017-10-10T07:42:11.035Z,99.90
2017-10-10T07:44:39.632Z,99.90
2017-10-10T07:47:07.455Z,99.90
2017-10-10T07:49:35.190Z,99.90
2017-10-10T07:52:02.959Z,99.90
2017-10-10T07:54:30.733Z,99.90
2017-10-10T07:56:58.590Z,99.90
2017-10-10T07:59:26.395Z,99.90
2017-10-10T08:01:54.527Z,99.90
2017-10-10T08:04:22.278Z,98.80
2017-10-10T08:06:50.109Z,98.30
2017-10-10T08:09:18.580Z,98.70
2017-10-10T08:11:47.586Z,98.10
2017-10-10T08:14:16.034Z,97.40
2017-10-10T08:16:43.725Z,97.40
2017-10-10T08:19:12.472Z,93.00
2017-10-10T08:21:40.144Z,93.00
2017-10-10T08:24:07.836Z,93.20
2017-10-10T08:26:36.299Z,94.20
2017-10-10T08:29:04.283Z,94.20
2017-10-10T08:31:32.734Z,94.50
2017-10-10T08:34:00.491Z,94.50
2017-10-10T08:36:28.225Z,95.40
2017-10-10T08:38:56.014Z,94.40
2017-10-10T08:41:23.873Z,95.10
2017-10-10T08:43:51.790Z,96.20
2017-10-10T08:46:20.326Z,94.70
2017-10-10T08:48:48.084Z,94.70
2017-10-10T08:51:16.423Z,93.70
2017-10-10T08:53:44.886Z,93.00
2017-10-10T08:56:12.613Z,93.20
2017-10-10T08:58:41.193Z,94.90
2017-10-10T09:01:08.927Z,93.10
2017-10-10T09:03:36.623Z,92.30
2017-10-10T09:06:04.303Z,92.10
2017-10-10T09:08:32.784Z,89.50
2017-10-10T09:11:00.449Z,90.00
2017-10-10T09:13:28.137Z,91.50
2017-10-10T09:15:56.671Z,87.50
2017-10-10T09:18:24.360Z,87.70
2017-10-10T09:20:53.667Z,88.80
2017-10-10T09:23:21.412Z,88.80
2017-10-10T09:25:49.242Z,87.70
2017-10-10T09:28:17.123Z,90.10
2017-10-10T09:30:44.899Z,90.10
2017-10-10T09:33:12.651Z,91.30
2017-10-10T09:35:41.131Z,91.90
2017-10-10T09:38:09.708Z,91.10
2017-10-10T09:40:37.501Z,90.60
2017-10-10T09:43:05.259Z,91.50
2017-10-10T09:45:33.015Z,91.00
2017-10-10T09:48:00.696Z,91.80
2017-10-10T09:50:28.380Z,92.20
2017-10-10T09:52:56.829Z,93.30
2017-10-10T09:55:24.691Z,93.40
2017-10-10T09:57:52.376Z,92.10
2017-10-10T10:00:20.820Z,92.70
2017-10-10T10:02:49.642Z,92.70
2017-10-10T10:05:17.317Z,91.20
2017-10-10T10:07:46.172Z,90.90
2017-10-10T10:10:13.885Z,90.90
2017-10-10T10:12:42.427Z,87.80
2017-10-10T10:15:10.167Z,87.50
2017-10-10T10:17:37.886Z,89.70
2017-10-10T10:20:06.423Z,89.00
2017-10-10T10:22:34.113Z,89.00
2017-10-10T10:25:02.705Z,86.70
2017-10-10T10:27:30.428Z,86.80
2017-10-10T10:29:58.900Z,90.20
2017-10-10T10:32:26.638Z,90.30
2017-10-10T10:34:54.324Z,88.20
2017-10-10T10:37:22.099Z,88.40
2017-10-10T10:39:49.773Z,90.10
2017-10-10T10:42:17.453Z,89.40
2017-10-10T10:44:45.148Z,87.90
2017-10-10T10:47:12.872Z,88.10
2017-10-10T10:49:40.569Z,88.60
2017-10-10T10:52:09.052Z,87.70
2017-10-10T10:54:37.501Z,86.90
2017-10-10T10:57:05.342Z,86.90
2017-10-10T10:59:33.027Z,87.90
2017-10-10T11:02:00.820Z,88.10
2017-10-10T11:04:29.284Z,90.40
2017-10-10T11:06:57.013Z,90.50
2017-10-10T11:09:24.881Z,89.50
2017-10-10T11:11:52.643Z,91.00
2017-10-10T11:14:20.545Z,91.20
2017-10-10T11:16:48.310Z,92.00
2017-10-10T11:19:16.939Z,93.00
2017-10-10T11:21:44.683Z,92.90
2017-10-10T11:24:12.598Z,92.30
2017-10-10T11:26:41.066Z,93.20
2017-10-10T11:29:08.772Z,92.40
2017-10-10T11:31:37.426Z,91.00
2017-10-10T11:34:05.168Z,90.90
2017-10-10T11:36:33.034Z,91.00
2017-10-10T11:39:00.766Z,91.60
2017-10-10T11:41:29.234Z,90.10
2017-10-10T11:43:57.743Z,89.40
2017-10-10T11:46:25.514Z,89.20
2017-10-10T11:48:53.311Z,88.90
2017-10-10T11:51:21.271Z,84.80
2017-10-10T11:53:49.189Z,85.30
2017-10-10T11:56:17.644Z,82.20
2017-10-10T11:58:45.774Z,82.20
2017-10-10T12:01:13.662Z,85.50
2017-10-10T12:03:41.459Z,84.20
2017-10-10T12:06:10.013Z,84.70
2017-10-10T12:08:37.767Z,84.40
2017-10-10T12:11:05.651Z,84.20
2017-10-10T12:13:33.755Z,80.20
2017-10-10T12:16:03.421Z,81.40
2017-10-10T12:18:31.281Z,81.40
2017-10-10T12:20:59.110Z,79.40
2017-10-10T12:23:26.865Z,71.90
2017-10-10T12:25:55.320Z,73.40
2017-10-10T12:28:23.567Z,73.40
2017-10-10T12:30:51.338Z,78.30
2017-10-10T12:33:19.198Z,74.60
2017-10-10T12:35:46.927Z,75.80
2017-10-10T12:38:14.835Z,73.90
2017-10-10T12:40:42.537Z,72.70
2017-10-10T12:43:11.038Z,77.30
2017-10-10T12:45:38.941Z,77.40
2017-10-10T12:48:07.473Z,77.10
2017-10-10T12:50:35.929Z,74.60
2017-10-10T12:53:03.665Z,74.30
2017-10-10T12:55:31.433Z,71.10
2017-10-10T12:57:59.151Z,72.40
2017-10-10T13:00:27.900Z,69.90
2017-10-10T13:02:55.657Z,70.00
2017-10-10T13:05:24.356Z,72.20
2017-10-10T13:07:53.820Z,63.50
2017-10-10T13:10:21.538Z,63.40
2017-10-10T13:12:50.003Z,69.80
2017-10-10T13:15:17.865Z,69.80
2017-10-10T13:17:45.625Z,66.60
2017-10-10T13:20:13.771Z,67.80
2017-10-10T13:22:41.457Z,71.00
2017-10-10T13:25:09.291Z,72.30
2017-10-10T13:27:37.190Z,69.10
2017-10-10T13:30:05.057Z,72.90
2017-10-10T13:32:33.059Z,69.20
2017-10-10T13:35:01.716Z,71.60
2017-10-10T13:37:29.756Z,71.60
2017-10-10T13:39:57.432Z,70.70
2017-10-10T13:42:25.310Z,67.60
2017-10-10T13:44:53.273Z,65.70
2017-10-10T13:47:21.692Z,65.00
2017-10-10T13:49:50.232Z,65.50
2017-10-10T13:52:17.912Z,65.50
2017-10-10T13:54:46.311Z,69.90
2017-10-10T13:57:15.064Z,70.60
2017-10-10T13:59:43.110Z,70.70
2017-10-10T14:02:10.791Z,67.40
2017-10-10T14:04:38.507Z,63.00
2017-10-10T14:07:06.971Z,62.40
2017-10-10T14:09:35.448Z,60.60
2017-10-10T14:12:03.323Z,61.50
2017-10-10T14:14:32.698Z,60.00
2017-10-10T14:17:00.414Z,59.90
2017-10-10T14:19:28.146Z,62.00
2017-10-10T14:21:56.698Z,68.70
2017-10-10T14:24:24.464Z,68.80
2017-10-10T14:26:52.321Z,65.80
2017-10-10T14:29:20.529Z,64.30
2017-10-10T14:31:48.231Z,62.70
2017-10-10T14:34:15.921Z,64.70
2017-10-10T14:36:44.811Z,66.40
2017-10-10T14:39:12.508Z,64.50
2017-10-10T14:41:40.196Z,65.00
2017-10-10T14:44:08.727Z,67.50
2017-10-10T14:46:36.452Z,67.50
2017-10-10T14:49:04.178Z,67.60
2017-10-10T14:51:31.898Z,67.10
2017-10-10T14:53:59.770Z,62.00
2017-10-10T14:56:27.522Z,62.90
2017-10-10T14:58:56.437Z,60.30
2017-10-10T15:01:24.212Z,59.90
2017-10-10T15:03:52.075Z,61.00
2017-10-10T15:06:19.828Z,63.00
2017-10-10T15:08:47.734Z,60.70
2017-10-10T15:11:16.397Z,56.60
2017-10-10T15:13:44.974Z,57.80
2017-10-10T15:16:12.927Z,57.80
2017-10-10T15:18:40.644Z,58.90
2017-10-10T15:21:09.208Z,61.80
2017-10-10T15:23:37.056Z,61.70
2017-10-10T15:26:05.008Z,63.60
2017-10-10T15:28:33.191Z,63.20
2017-10-10T15:31:00.963Z,64.50
2017-10-10T15:33:29.032Z,66.80
2017-10-10T15:35:56.898Z,66.20
2017-10-10T15:38:24.663Z,65.70
2017-10-10T15:40:52.546Z,70.30
2017-10-10T15:43:20.411Z,70.60
2017-10-10T15:45:49.270Z,69.00
2017-10-10T15:48:18.370Z,68.20
2017-10-10T15:50:46.893Z,68.10
2017-10-10T15:53:14.920Z,70.00
2017-10-10T15:55:42.783Z,72.50
2017-10-10T15:58:10.752Z,74.20
2017-10-10T16:00:38.635Z,77.00
2017-10-10T16:03:07.412Z,77.40
2017-10-10T16:05:36.507Z,76.80
2017-10-10T16:08:04.385Z,78.00
2017-10-10T16:10:34.294Z,78.90
2017-10-10T16:13:03.219Z,76.10
2017-10-10T16:15:32.320Z,81.20
2017-10-10T16:18:01.963Z,85.00
2017-10-10T16:20:29.861Z,86.80
2017-10-10T16:22:57.723Z,87.90
2017-10-10T16:25:25.676Z,90.00
2017-10-10T16:27:53.860Z,90.40
2017-10-10T16:30:22.103Z,90.10
2017-10-10T16:32:51.121Z,90.40
2017-10-10T16:35:19.373Z,90.70
2017-10-10T16:37:47.265Z,90.20
2017-10-10T16:40:15.246Z,91.30
2017-10-10T16:42:43.017Z,92.80
2017-10-10T16:45:10.967Z,93.40
2017-10-10T16:47:38.983Z,93.40
2017-10-10T16:50:07.863Z,94.00
2017-10-10T16:52:36.617Z,94.60
2017-10-10T16:55:04.585Z,94.60
2017-10-10T16:57:32.489Z,94.90
2017-10-10T17:00:00.530Z,95.00
2017-10-10T17:02:28.409Z,95.60
2017-10-10T17:04:56.928Z,97.40
2017-10-10T17:07:25.654Z,97.80
2017-10-10T17:09:53.536Z,97.80
2017-10-10T17:12:21.607Z,98.20
2017-10-10T17:14:49.561Z,98.40
2017-10-10T17:17:17.684Z,98.50
2017-10-10T17:19:46.340Z,99.60
2017-10-10T17:22:15.685Z,99.30
2017-10-10T17:24:43.578Z,99.60
2017-10-10T17:27:11.371Z,99.90
2017-10-10T17:29:39.231Z,99.50
2017-10-10T17:32:07.206Z,99.10
2017-10-10T17:34:35.052Z,99.30
2017-10-10T17:37:02.956Z,99.30
2017-10-10T17:39:30.784Z,99.70
2017-10-10T17:41:58.825Z,99.90
2017-10-10T17:44:26.660Z,99.90
2017-10-10T17:46:55.311Z,99.90
2017-10-10T17:49:23.330Z,99.90
2017-10-10T17:51:51.936Z,99.90
2017-10-10T17:54:20.444Z,99.90
2017-10-10T17:56:48.310Z,99.90
2017-10-10T17:59:16.691Z,99.90
2017-10-10T18:01:44.717Z,99.90
2017-10-10T18:04:13.380Z,99.90
2017-10-10T18:06:41.620Z,99.90
2017-10-10T18:09:10.915Z,99.90
2017-10-10T18:11:38.898Z,99.90
2017-10-10T18:14:06.783Z,99.90
2017-10-10T18:16:34.729Z,99.90
2017-10-10T18:19:02.638Z,99.90
2017-10-10T18:21:31.721Z,99.90
2017-10-10T18:23:59.859Z,99.90
2017-10-10T18:26:27.828Z,99.90
2017-10-10T18:28:55.711Z,99.90
2017-10-10T18:31:23.670Z,99.90
2017-10-10T18:33:51.637Z,99.90
2017-10-10T18:36:19.640Z,99.90
2017-10-10T18:38:48.398Z,99.90
2017-10-10T18:41:16.460Z,99.90
2017-10-10T18:43:44.353Z,99.90
2017-10-10T18:46:12.290Z,99.90
2017-10-10T18:48:40.213Z,99.90
2017-10-10T18:51:08.945Z,99.90
2017-10-10T18:53:37.797Z,99.90
2017-10-10T18:56:06.453Z,99.90
2017-10-10T18:58:34.251Z,99.90
2017-10-10T19:01:02.071Z,99.90
2017-10-10T19:03:30.227Z,99.90
2017-10-10T19:05:58.118Z,99.90
2017-10-10T19:08:26.884Z,99.90
2017-10-10T19:10:54.849Z,99.90
2017-10-10T19:13:23.514Z,99.90
2017-10-10T19:15:51.519Z,99.90
2017-10-10T19:18:19.496Z,99.90
2017-10-10T19:20:47.570Z,99.90
2017-10-10T19:23:15.820Z,99.90
2017-10-10T19:25:43.711Z,99.90
2017-10-10T19:28:11.782Z,99.90
2017-10-10T19:30:39.692Z,99.90
2017-10-10T19:33:07.696Z,99.90
2017-10-10T19:35:35.688Z,99.90
2017-10-10T19:38:03.557Z,99.90
2017-10-10T19:40:31.425Z,99.60
2017-10-10T19:42:59.364Z,99.50
2017-10-10T19:45:27.237Z,99.70
2017-10-10T19:47:55.715Z,99.60
2017-10-10T19:50:23.579Z,99.80
2017-10-10T19:52:51.651Z,99.60
2017-10-10T19:55:19.730Z,99.10
2017-10-10T19:57:49.312Z,98.90
2017-10-10T20:00:17.301Z,98.70
2017-10-10T20:02:45.923Z,98.60
2017-10-10T20:05:14.669Z,97.80
2017-10-10T20:07:42.538Z,97.70
2017-10-10T20:10:10.620Z,97.60
2017-10-10T20:12:38.499Z,97.70
2017-10-10T20:15:06.344Z,97.90
2017-10-10T20:17:34.323Z,98.10
2017-10-10T20:20:02.379Z,98.20
2017-10-10T20:22:30.276Z,98.20
2017-10-10T20:24:58.845Z,98.70
2017-10-10T20:27:26.898Z,98.60
2017-10-10T20:29:54.742Z,99.20
2017-10-10T20:32:22.513Z,99.00
2017-10-10T20:34:50.280Z,98.90
2017-10-10T20:37:18.196Z,98.70
2017-10-10T20:39:46.148Z,98.50
2017-10-10T20:42:14.215Z,98.60
2017-10-10T20:44:42.027Z,98.80
2017-10-10T20:47:10.672Z,98.90
2017-10-10T20:49:39.154Z,98.90
2017-10-10T20:52:07.760Z,98.70
2017-10-10T20:54:36.399Z,98.30
2017-10-10T20:57:04.171Z,98.30
2017-10-10T20:59:32.046Z,98.20
2017-10-10T21:01:59.914Z,98.10
2017-10-10T21:04:27.725Z,98.10
2017-10-10T21:06:55.547Z,98.40
2017-10-10T21:09:23.510Z,98.20
2017-10-10T21:11:51.274Z,98.10
2017-10-10T21:14:19.149Z,98.10
2017-10-10T21:16:46.974Z,98.20
2017-10-10T21:19:15.492Z,97.80
2017-10-10T21:21:43.364Z,97.80
2017-10-10T21:24:11.120Z,97.70
2017-10-10T21:26:38.970Z,97.60
2017-10-10T21:29:07.499Z,97.20
2017-10-10T21:31:36.053Z,97.00
2017-10-10T21:34:03.897Z,97.00
2017-10-10T21:36:31.679Z,97.20
2017-10-10T21:38:59.578Z,97.50
2017-10-10T21:41:28.112Z,97.80
2017-10-10T21:43:55.892Z,97.90
2017-10-10T21:46:24.579Z,98.30
2017-10-10T21:48:52.560Z,98.10
2017-10-10T21:51:20.932Z,98.30
2017-10-10T21:53:48.700Z,98.10
2017-10-10T21:56:16.644Z,98.20
2017-10-10T21:58:44.509Z,98.10
2017-10-10T22:01:12.318Z,97.70
2017-10-10T22:03:40.157Z,97.60
2017-10-10T22:06:07.929Z,97.30
2017-10-10T22:08:35.822Z,97.40
2017-10-10T22:11:04.375Z,97.10
2017-10-10T22:13:32.136Z,97.00
2017-10-10T22:16:00.087Z,97.00
2017-10-10T22:18:27.970Z,97.30
2017-10-10T22:20:55.746Z,97.30
2017-10-10T22:23:24.312Z,97.60
2017-10-10T22:25:52.080Z,97.60
2017-10-10T22:28:19.843Z,97.80
2017-10-10T22:30:47.707Z,98.00
2017-10-10T22:33:15.788Z,98.50
2017-10-10T22:35:43.560Z,98.80
2017-10-10T22:38:11.345Z,98.90
2017-10-10T22:40:39.840Z,98.40
2017-10-10T22:43:07.666Z,98.40
2017-10-10T22:45:35.431Z,98.40
2017-10-10T22:48:03.211Z,98.20
2017-10-10T22:50:30.999Z,98.30
2017-10-10T22:52:58.898Z,98.40
2017-10-10T22:55:26.682Z,98.30
2017-10-10T22:57:54.529Z,98.40
2017-10-10T23:00:22.354Z,98.30
2017-10-10T23:02:51.114Z,98.30
2017-10-10T23:05:18.966Z,98.30
2017-10-10T23:07:46.735Z,98.10
2017-10-10T23:10:14.556Z,98.70
2017-10-10T23:12:42.300Z,98.70
2017-10-10T23:15:11.032Z,98.10
2017-10-10T23:17:38.829Z,97.80
2017-10-10T23:20:06.678Z,97.80
2017-10-10T23:22:37.306Z,98.80
2017-10-10T23:25:05.261Z,98.70
2017-10-10T23:27:33.022Z,98.80
2017-10-10T23:30:00.908Z,99.10
2017-10-10T23:32:28.674Z,99.40
2017-10-10T23:34:56.418Z,99.70
2017-10-10T23:37:25.131Z,99.90
2017-10-10T23:39:52.987Z,99.90
2017-10-10T23:42:20.752Z,99.90
2017-10-10T23:44:48.517Z,99.90
2017-10-10T23:47:16.319Z,99.90
2017-10-10T23:49:44.857Z,99.90
2017-10-10T23:52:12.635Z,99.90
2017-10-10T23:54:40.496Z,99.90
2017-10-10T23:57:08.256Z,99.90
2017-10-10T23:59:36.227Z,99.90
